createdAt,value
2018-09-17T00:02:15.482Z,71.01
2018-09-17T00:04:45.078Z,70.83
2018-09-17T00:07:14.571Z,71.69
2018-09-17T00:09:44.087Z,71.61
2018-09-17T00:12:13.674Z,71.58
2018-09-17T00:14:43.191Z,71.84
2018-09-17T00:17:12.773Z,71.93
2018-09-17T00:19:42.299Z,72.11
2018-09-17T00:22:12.112Z,72.25
2018-09-17T00:24:41.950Z,72.43
2018-09-17T00:27:11.543Z,72.73
2018-09-17T00:29:41.106Z,72.18
2018-09-17T00:32:10.648Z,72.58
2018-09-17T00:34:40.325Z,72.92
2018-09-17T00:37:10.039Z,72.94
2018-09-17T00:39:39.836Z,73.54
2018-09-17T00:42:09.536Z,73.23
2018-09-17T00:44:39.075Z,73.32
2018-09-17T00:47:08.730Z,73.54
2018-09-17T00:49:38.390Z,74.07
2018-09-17T00:52:08.389Z,73.58
2018-09-17T00:54:38.523Z,73.75
2018-09-17T00:57:08.072Z,73.78
2018-09-17T00:59:37.672Z,73.82
2018-09-17T01:02:07.319Z,73.82
2018-09-17T01:04:37.147Z,73.53
2018-09-17T01:07:07.155Z,73.96
2018-09-17T01:09:41.811Z,74.14
2018-09-17T01:12:12.889Z,74.52
2018-09-17T01:14:42.651Z,74.34
2018-09-17T01:17:12.223Z,74.29
2018-09-17T01:19:41.802Z,74.81
2018-09-17T01:22:11.364Z,73.92
2018-09-17T01:24:40.924Z,74.49
2018-09-17T01:27:11.019Z,74.81
2018-09-17T01:29:40.558Z,74.77
2018-09-17T01:32:10.193Z,74.87
2018-09-17T01:34:39.895Z,74.42
2018-09-17T01:37:09.515Z,74.75
2018-09-17T01:39:39.448Z,74.67
2018-09-17T01:42:09.018Z,75.06
2018-09-17T01:44:39.072Z,75.00
2018-09-17T01:47:08.863Z,75.31
2018-09-17T01:49:38.546Z,75.38
2018-09-17T01:52:08.287Z,75.25
2018-09-17T01:54:38.055Z,75.58
2018-09-17T01:57:07.897Z,75.90
2018-09-17T01:59:37.720Z,75.45
2018-09-17T02:02:08.781Z,75.47
2018-09-17T02:04:39.176Z,75.79
2018-09-17T02:07:09.148Z,75.81
2018-09-17T02:09:40.635Z,75.60
2018-09-17T02:12:12.769Z,76.11
2018-09-17T02:14:43.161Z,76.42
2018-09-17T02:17:13.209Z,76.23
2018-09-17T02:19:42.851Z,76.41
2018-09-17T02:22:12.443Z,76.11
2018-09-17T02:24:42.024Z,76.38
2018-09-17T02:27:11.584Z,76.11
2018-09-17T02:29:41.234Z,76.65
2018-09-17T02:32:10.779Z,76.28
2018-09-17T02:34:40.300Z,76.64
2018-09-17T02:37:09.831Z,76.91
2018-09-17T02:39:39.640Z,77.02
2018-09-17T02:42:09.647Z,77.20
2018-09-17T02:44:39.360Z,77.45
2018-09-17T02:47:09.019Z,77.01
2018-09-17T02:49:38.671Z,76.99
2018-09-17T02:52:08.370Z,76.97
2018-09-17T02:54:38.398Z,77.23
2018-09-17T02:57:08.307Z,77.90
2018-09-17T02:59:37.991Z,77.73
2018-09-17T03:02:07.643Z,77.64
2018-09-17T03:04:37.464Z,77.72
2018-09-17T03:07:07.032Z,77.96
2018-09-17T03:09:36.653Z,78.01
2018-09-17T03:12:06.474Z,78.17
2018-09-17T03:14:36.164Z,77.59
2018-09-17T03:17:13.999Z,77.61
2018-09-17T03:19:44.980Z,77.59
2018-09-17T03:22:15.286Z,78.06
2018-09-17T03:24:44.836Z,77.69
2018-09-17T03:27:14.615Z,77.86
2018-09-17T03:29:44.335Z,78.46
2018-09-17T03:32:13.951Z,78.73
2018-09-17T03:34:43.555Z,78.57
2018-09-17T03:37:13.161Z,78.04
2018-09-17T03:39:42.875Z,77.41
2018-09-17T03:42:12.639Z,77.22
2018-09-17T03:44:42.391Z,77.37
2018-09-17T03:47:12.145Z,77.47
2018-09-17T03:49:41.713Z,78.51
2018-09-17T03:52:11.424Z,78.14
2018-09-17T03:54:41.355Z,78.33
2018-09-17T03:57:11.355Z,78.29
2018-09-17T03:59:41.311Z,78.53
2018-09-17T04:02:11.064Z,77.70
2018-09-17T04:04:41.285Z,78.14
2018-09-17T04:07:11.387Z,78.29
2018-09-17T04:09:43.403Z,79.01
2018-09-17T04:12:14.552Z,79.12
2018-09-17T04:14:44.451Z,79.36
2018-09-17T04:17:14.101Z,79.13
2018-09-17T04:19:43.723Z,78.95
2018-09-17T04:22:18.007Z,78.97
2018-09-17T04:24:47.736Z,78.55
2018-09-17T04:27:18.413Z,78.35
2018-09-17T04:29:48.095Z,78.82
2018-09-17T04:32:17.911Z,79.20
2018-09-17T04:34:47.627Z,79.18
2018-09-17T04:37:17.362Z,79.27
2018-09-17T04:39:47.138Z,79.16
2018-09-17T04:42:16.874Z,79.87
2018-09-17T04:44:46.851Z,79.32
2018-09-17T04:47:16.483Z,79.20
2018-09-17T04:49:46.102Z,78.42
2018-09-17T04:52:15.810Z,78.52
2018-09-17T04:54:45.664Z,78.01
2018-09-17T04:57:15.428Z,78.70
2018-09-17T04:59:45.427Z,78.69
2018-09-17T05:02:15.261Z,79.62
2018-09-17T05:04:45.255Z,79.90
2018-09-17T05:07:15.050Z,80.33
2018-09-17T05:09:44.729Z,79.84
2018-09-17T05:12:14.492Z,80.07
2018-09-17T05:14:44.064Z,80.35
2018-09-17T05:17:13.623Z,80.34
2018-09-17T05:19:43.348Z,79.85
2018-09-17T05:22:15.307Z,80.08
2018-09-17T05:24:45.094Z,79.83
2018-09-17T05:27:15.824Z,79.77
2018-09-17T05:29:45.549Z,79.37
2018-09-17T05:32:15.349Z,79.80
2018-09-17T05:34:45.011Z,79.12
2018-09-17T05:37:14.759Z,78.81
2018-09-17T05:39:44.359Z,78.34
2018-09-17T05:42:14.004Z,77.93
2018-09-17T05:44:43.666Z,77.10
2018-09-17T05:47:13.479Z,76.84
2018-09-17T05:49:43.122Z,76.56
2018-09-17T05:52:12.940Z,76.14
2018-09-17T05:54:43.050Z,75.40
2018-09-17T05:57:12.876Z,75.23
2018-09-17T05:59:42.522Z,74.61
2018-09-17T06:02:12.866Z,74.05
2018-09-17T06:04:42.415Z,73.39
2018-09-17T06:07:12.059Z,72.64
2018-09-17T06:09:42.035Z,72.12
2018-09-17T06:12:11.603Z,71.92
2018-09-17T06:14:41.345Z,71.73
2018-09-17T06:17:11.035Z,71.72
2018-09-17T06:19:40.943Z,70.97
2018-09-17T06:22:10.556Z,70.06
2018-09-17T06:24:40.157Z,69.77
2018-09-17T06:27:10.055Z,69.30
2018-09-17T06:29:39.822Z,68.59
2018-09-17T06:32:09.447Z,68.91
2018-09-17T06:34:38.955Z,68.57
2018-09-17T06:37:08.532Z,68.18
2018-09-17T06:39:38.070Z,67.88
2018-09-17T06:42:07.643Z,66.98
2018-09-17T06:44:37.197Z,67.67
2018-09-17T06:47:06.807Z,67.66
2018-09-17T06:49:36.367Z,66.73
2018-09-17T06:52:05.914Z,66.10
2018-09-17T06:54:35.549Z,67.21
2018-09-17T06:57:05.119Z,66.36
2018-09-17T06:59:34.715Z,66.14
2018-09-17T07:02:04.323Z,66.38
2018-09-17T07:04:33.850Z,66.47
2018-09-17T07:07:03.445Z,66.24
2018-09-17T07:09:32.992Z,66.03
2018-09-17T07:12:02.530Z,64.99
2018-09-17T07:14:32.103Z,64.91
2018-09-17T07:17:01.651Z,64.67
2018-09-17T07:19:31.214Z,64.65
2018-09-17T07:22:00.779Z,65.08
2018-09-17T07:24:30.389Z,65.41
2018-09-17T07:26:59.931Z,64.34
2018-09-17T07:29:29.532Z,64.25
2018-09-17T07:31:59.070Z,63.64
2018-09-17T07:34:28.688Z,63.40
2018-09-17T07:36:58.255Z,63.03
2018-09-17T07:39:27.795Z,63.07
2018-09-17T07:42:12.295Z,63.02
2018-09-17T07:44:41.885Z,62.07
2018-09-17T07:47:11.423Z,62.64
2018-09-17T07:49:40.955Z,61.92
2018-09-17T07:52:10.984Z,61.38
2018-09-17T07:54:40.578Z,62.09
2018-09-17T07:57:10.175Z,61.01
2018-09-17T07:59:39.703Z,60.28
2018-09-17T08:02:09.271Z,61.19
2018-09-17T08:04:38.886Z,60.43
2018-09-17T08:07:08.480Z,60.89
2018-09-17T08:09:38.674Z,60.03
2018-09-17T08:12:08.451Z,59.56
2018-09-17T08:14:38.004Z,59.81
2018-09-17T08:17:07.682Z,59.14
2018-09-17T08:19:37.457Z,57.74
2018-09-17T08:22:07.542Z,58.13
2018-09-17T08:24:37.199Z,57.07
2018-09-17T08:27:07.355Z,57.15
2018-09-17T08:29:36.903Z,56.99
2018-09-17T08:32:06.820Z,55.79
2018-09-17T08:34:36.375Z,57.56
2018-09-17T08:37:06.240Z,56.76
2018-09-17T08:39:35.822Z,55.32
2018-09-17T08:42:05.659Z,55.15
2018-09-17T08:44:35.179Z,55.34
2018-09-17T08:47:04.770Z,55.09
2018-09-17T08:49:34.303Z,54.92
2018-09-17T08:52:03.853Z,54.03
2018-09-17T08:54:37.455Z,53.23
2018-09-17T08:57:12.467Z,53.54
2018-09-17T08:59:50.928Z,51.62
2018-09-17T09:02:25.934Z,51.63
2018-09-17T09:04:56.450Z,53.65
2018-09-17T09:07:31.209Z,52.58
2018-09-17T09:10:06.099Z,50.11
2018-09-17T09:12:40.183Z,52.06
2018-09-17T09:15:15.699Z,50.89
2018-09-17T09:17:45.301Z,51.18
2018-09-17T09:20:15.063Z,49.89
2018-09-17T09:22:44.636Z,50.39
2018-09-17T09:25:14.152Z,49.44
2018-09-17T09:27:43.688Z,50.40
2018-09-17T09:30:13.304Z,48.77
2018-09-17T09:32:43.216Z,49.65
2018-09-17T09:35:12.804Z,49.05
2018-09-17T09:37:42.346Z,47.28
2018-09-17T09:40:12.158Z,46.95
2018-09-17T09:42:42.420Z,46.58
2018-09-17T09:45:12.278Z,48.26
2018-09-17T09:47:41.823Z,46.18
2018-09-17T09:50:11.387Z,47.37
2018-09-17T09:52:41.070Z,46.83
2018-09-17T09:55:10.789Z,47.82
2018-09-17T09:57:40.306Z,46.71
2018-09-17T10:00:15.844Z,47.33
2018-09-17T10:02:50.578Z,47.52
2018-09-17T10:05:20.343Z,47.55
2018-09-17T10:07:50.172Z,48.17
2018-09-17T10:10:25.482Z,46.94
2018-09-17T10:13:00.319Z,46.32
2018-09-17T10:15:39.998Z,46.10
2018-09-17T10:18:14.701Z,47.21
2018-09-17T10:20:44.258Z,46.29
2018-09-17T10:23:14.073Z,44.30
2018-09-17T10:25:43.628Z,45.33
2018-09-17T10:28:13.155Z,45.18
2018-09-17T10:30:42.697Z,44.63
2018-09-17T10:33:12.275Z,45.25
2018-09-17T10:35:41.898Z,44.46
2018-09-17T10:38:11.467Z,46.16
2018-09-17T10:40:41.251Z,44.78
2018-09-17T10:43:10.940Z,44.89
2018-09-17T10:45:40.483Z,43.82
2018-09-17T10:48:10.276Z,43.54
2018-09-17T10:50:39.822Z,44.29
2018-09-17T10:53:09.437Z,44.83
2018-09-17T10:55:38.989Z,43.24
2018-09-17T10:58:08.539Z,44.20
2018-09-17T11:00:38.129Z,44.13
2018-09-17T11:03:08.232Z,44.38
2018-09-17T11:05:37.789Z,43.59
2018-09-17T11:08:07.412Z,43.54
2018-09-17T11:10:37.192Z,42.96
2018-09-17T11:13:06.750Z,43.09
2018-09-17T11:15:41.564Z,42.41
2018-09-17T11:18:11.109Z,42.77
2018-09-17T11:20:40.759Z,41.96
2018-09-17T11:23:10.295Z,42.58
2018-09-17T11:25:39.875Z,42.32
2018-09-17T11:28:09.545Z,41.54
2018-09-17T11:30:39.103Z,41.32
2018-09-17T11:33:08.703Z,40.86
2018-09-17T11:35:38.275Z,41.26
2018-09-17T11:38:08.123Z,41.16
2018-09-17T11:40:37.686Z,41.56
2018-09-17T11:43:07.305Z,41.03
2018-09-17T11:45:37.110Z,40.96
2018-09-17T11:48:06.765Z,40.61
2018-09-17T11:50:36.456Z,40.85
2018-09-17T11:53:06.406Z,39.38
2018-09-17T11:55:36.463Z,38.56
2018-09-17T11:58:06.308Z,38.16
2018-09-17T12:00:41.182Z,37.40
2018-09-17T12:03:15.882Z,35.78
2018-09-17T12:05:50.735Z,36.21
2018-09-17T12:08:20.435Z,37.23
2018-09-17T12:10:51.970Z,36.64
2018-09-17T12:13:21.518Z,35.59
2018-09-17T12:15:51.095Z,35.08
2018-09-17T12:18:20.698Z,36.07
2018-09-17T12:20:50.251Z,35.62
2018-09-17T12:23:24.386Z,34.98
2018-09-17T12:25:53.960Z,35.12
2018-09-17T12:28:23.525Z,34.26
2018-09-17T12:30:53.318Z,34.82
2018-09-17T12:33:23.541Z,34.29
2018-09-17T12:35:53.139Z,35.69
2018-09-17T12:38:22.688Z,35.17
2018-09-17T12:40:52.248Z,34.49
2018-09-17T12:43:21.854Z,34.54
2018-09-17T12:45:51.442Z,34.13
2018-09-17T12:48:21.190Z,34.24
2018-09-17T12:50:50.690Z,34.01
2018-09-17T12:53:20.487Z,33.32
2018-09-17T12:55:50.049Z,33.51
2018-09-17T12:58:19.605Z,33.24
2018-09-17T13:00:49.178Z,34.40
2018-09-17T13:03:18.781Z,32.90
2018-09-17T13:05:48.489Z,34.91
2018-09-17T13:08:18.055Z,33.57
2018-09-17T13:10:47.679Z,33.46
2018-09-17T13:13:17.375Z,33.92
2018-09-17T13:15:53.526Z,33.68
2018-09-17T13:18:25.195Z,33.53
2018-09-17T13:20:54.916Z,33.16
2018-09-17T13:23:24.446Z,34.18
2018-09-17T13:25:59.858Z,34.64
2018-09-17T13:28:29.719Z,34.87
2018-09-17T13:30:59.290Z,35.65
2018-09-17T13:33:28.850Z,35.25
2018-09-17T13:35:58.601Z,34.86
2018-09-17T13:38:28.772Z,34.59
2018-09-17T13:40:58.369Z,34.31
2018-09-17T13:43:27.915Z,34.54
2018-09-17T13:45:57.525Z,35.33
2018-09-17T13:48:27.300Z,34.63
2018-09-17T13:51:06.476Z,34.62
2018-09-17T13:53:36.309Z,34.83
2018-09-17T13:56:06.039Z,34.13
2018-09-17T13:58:41.424Z,34.00
2018-09-17T14:01:11.235Z,35.08
2018-09-17T14:03:40.824Z,34.42
2018-09-17T14:06:10.367Z,34.44
2018-09-17T14:08:40.171Z,33.43
2018-09-17T14:11:09.698Z,33.41
2018-09-17T14:13:39.300Z,32.79
2018-09-17T14:16:09.975Z,32.41
2018-09-17T14:18:43.309Z,32.17
2018-09-17T14:21:13.516Z,32.63
2018-09-17T14:23:43.140Z,32.87
2018-09-17T14:26:12.755Z,33.22
2018-09-17T14:28:43.352Z,32.93
2018-09-17T14:31:26.656Z,33.22
2018-09-17T14:33:56.237Z,33.15
2018-09-17T14:36:26.082Z,32.04
2018-09-17T14:38:55.821Z,32.71
2018-09-17T14:41:25.913Z,31.87
2018-09-17T14:43:56.263Z,32.54
2018-09-17T14:46:27.167Z,31.78
2018-09-17T14:48:57.661Z,31.13
2018-09-17T14:51:27.491Z,31.80
2018-09-17T14:53:57.851Z,30.70
2018-09-17T14:56:27.806Z,30.30
2018-09-17T14:58:57.679Z,30.29
2018-09-17T15:01:27.484Z,31.65
2018-09-17T15:03:57.559Z,31.22
2018-09-17T15:06:27.399Z,30.67
2018-09-17T15:08:57.204Z,30.06
2018-09-17T15:11:27.008Z,30.48
2018-09-17T15:13:56.763Z,31.13
2018-09-17T15:16:26.483Z,31.45
2018-09-17T15:18:56.205Z,32.00
2018-09-17T15:21:25.831Z,31.38
2018-09-17T15:23:55.569Z,31.15
2018-09-17T15:26:25.530Z,31.16
2018-09-17T15:28:55.273Z,31.80
2018-09-17T15:31:24.917Z,30.97
2018-09-17T15:33:54.755Z,31.60
2018-09-17T15:36:26.475Z,31.03
2018-09-17T15:38:56.912Z,30.68
2018-09-17T15:41:26.604Z,30.92
2018-09-17T15:43:56.223Z,29.76
2018-09-17T15:46:25.810Z,30.55
2018-09-17T15:48:55.435Z,29.90
2018-09-17T15:51:25.011Z,30.51
2018-09-17T15:53:54.764Z,30.27
2018-09-17T15:56:24.400Z,31.13
2018-09-17T15:58:54.165Z,30.44
2018-09-17T16:01:23.857Z,30.79
2018-09-17T16:03:53.432Z,30.53
2018-09-17T16:06:23.119Z,30.62
2018-09-17T16:08:52.959Z,30.76
2018-09-17T16:11:22.608Z,30.85
2018-09-17T16:13:52.228Z,31.37
2018-09-17T16:16:21.822Z,31.21
2018-09-17T16:18:51.401Z,31.10
2018-09-17T16:21:21.029Z,31.90
2018-09-17T16:23:50.706Z,31.18
2018-09-17T16:26:20.316Z,31.95
2018-09-17T16:28:49.951Z,32.22
2018-09-17T16:31:19.552Z,32.54
2018-09-17T16:33:49.188Z,32.37
2018-09-17T16:36:18.751Z,33.00
2018-09-17T16:38:48.316Z,32.88
2018-09-17T16:41:18.000Z,32.85
2018-09-17T16:43:47.518Z,32.92
2018-09-17T16:46:17.169Z,32.60
2018-09-17T16:48:46.760Z,32.64
2018-09-17T16:51:16.347Z,32.97
2018-09-17T16:53:46.006Z,33.04
2018-09-17T16:56:15.739Z,32.71
2018-09-17T16:58:45.356Z,32.88
2018-09-17T17:01:15.116Z,33.07
2018-09-17T17:03:44.698Z,33.53
2018-09-17T17:06:14.276Z,34.67
2018-09-17T17:08:43.850Z,33.71
2018-09-17T17:11:13.434Z,35.55
2018-09-17T17:13:43.211Z,35.52
2018-09-17T17:16:12.855Z,36.93
2018-09-17T17:18:42.600Z,37.41
2018-09-17T17:21:12.727Z,37.46
2018-09-17T17:23:42.299Z,37.93
2018-09-17T17:26:11.882Z,39.57
2018-09-17T17:28:42.042Z,39.04
2018-09-17T17:31:11.632Z,36.76
2018-09-17T17:33:41.204Z,36.50
2018-09-17T17:36:10.768Z,37.24
2018-09-17T17:38:40.321Z,38.65
2018-09-17T17:41:09.909Z,38.92
2018-09-17T17:43:39.470Z,39.22
2018-09-17T17:46:09.488Z,41.49
2018-09-17T17:48:39.359Z,42.21
2018-09-17T17:51:09.104Z,43.10
2018-09-17T17:53:38.760Z,43.67
2018-09-17T17:56:08.331Z,44.23
2018-09-17T17:58:38.030Z,44.74
2018-09-17T18:01:08.203Z,45.84
2018-09-17T18:03:38.070Z,45.71
2018-09-17T18:06:07.679Z,47.11
2018-09-17T18:08:37.302Z,47.14
2018-09-17T18:11:06.993Z,46.83
2018-09-17T18:13:36.907Z,47.17
2018-09-17T18:16:07.044Z,47.37
2018-09-17T18:18:36.659Z,47.17
2018-09-17T18:21:06.745Z,47.59
2018-09-17T18:23:36.899Z,48.90
2018-09-17T18:26:06.588Z,48.38
2018-09-17T18:28:36.211Z,48.66
2018-09-17T18:31:06.481Z,48.74
2018-09-17T18:33:36.099Z,49.10
2018-09-17T18:36:05.721Z,50.93
2018-09-17T18:38:35.267Z,48.82
2018-09-17T18:41:04.859Z,49.57
2018-09-17T18:43:34.644Z,49.81
2018-09-17T18:46:04.231Z,50.35
2018-09-17T18:48:34.091Z,50.05
2018-09-17T18:51:03.862Z,50.28
2018-09-17T18:53:33.559Z,50.92
2018-09-17T18:56:03.168Z,50.52
2018-09-17T18:58:32.793Z,51.84
2018-09-17T19:01:02.562Z,51.11
2018-09-17T19:03:32.125Z,52.53
2018-09-17T19:06:01.848Z,52.42
2018-09-17T19:08:31.628Z,51.59
2018-09-17T19:11:01.282Z,52.61
2018-09-17T19:13:30.862Z,52.66
2018-09-17T19:16:00.713Z,52.19
2018-09-17T19:18:30.570Z,53.03
2018-09-17T19:21:00.539Z,53.27
2018-09-17T19:23:35.387Z,52.77
2018-09-17T19:26:05.061Z,52.88
2018-09-17T19:28:39.932Z,53.46
2018-09-17T19:31:09.483Z,53.11
2018-09-17T19:33:39.038Z,53.49
2018-09-17T19:36:08.933Z,53.94
2018-09-17T19:38:43.752Z,53.89
2018-09-17T19:41:13.310Z,54.40
2018-09-17T19:43:42.870Z,54.55
2018-09-17T19:46:18.772Z,54.67
2018-09-17T19:48:48.944Z,54.52
2018-09-17T19:51:23.906Z,54.27
2018-09-17T19:53:53.622Z,54.15
2018-09-17T19:56:23.479Z,55.11
2018-09-17T19:58:58.223Z,54.22
2018-09-17T20:01:27.990Z,54.48
2018-09-17T20:04:01.595Z,54.84
2018-09-17T20:06:31.141Z,54.87
2018-09-17T20:09:00.717Z,55.22
2018-09-17T20:11:30.271Z,55.70
2018-09-17T20:14:00.107Z,55.44
2018-09-17T20:16:30.171Z,55.28
2018-09-17T20:18:59.742Z,55.11
2018-09-17T20:21:29.353Z,56.12
2018-09-17T20:23:58.938Z,55.79
2018-09-17T20:26:28.549Z,56.37
2018-09-17T20:28:58.113Z,56.74
2018-09-17T20:31:27.719Z,56.16
2018-09-17T20:33:57.295Z,56.23
2018-09-17T20:36:26.914Z,56.08
2018-09-17T20:38:56.497Z,56.42
2018-09-17T20:41:26.067Z,56.44
2018-09-17T20:43:55.651Z,57.43
2018-09-17T20:46:25.211Z,56.83
2018-09-17T20:48:54.872Z,57.23
2018-09-17T20:51:24.565Z,57.23
2018-09-17T20:53:54.123Z,57.99
2018-09-17T20:56:23.704Z,57.86
2018-09-17T20:58:53.541Z,57.98
2018-09-17T21:01:23.491Z,58.76
2018-09-17T21:03:53.151Z,57.66
2018-09-17T21:06:22.749Z,58.65
2018-09-17T21:08:52.323Z,58.25
2018-09-17T21:11:21.935Z,58.44
2018-09-17T21:13:51.715Z,58.27
2018-09-17T21:16:21.266Z,58.54
2018-09-17T21:18:50.945Z,58.98
2018-09-17T21:21:20.680Z,59.65
2018-09-17T21:23:50.474Z,58.66
2018-09-17T21:26:20.244Z,59.81
2018-09-17T21:28:49.775Z,60.15
2018-09-17T21:31:19.596Z,59.72
2018-09-17T21:33:49.253Z,60.23
2018-09-17T21:36:19.007Z,59.97
2018-09-17T21:38:48.564Z,60.18
2018-09-17T21:41:18.143Z,60.31
2018-09-17T21:43:47.685Z,59.65
2018-09-17T21:46:17.214Z,60.00
2018-09-17T21:48:46.813Z,59.86
2018-09-17T21:51:16.319Z,60.24
2018-09-17T21:53:45.878Z,60.61
2018-09-17T21:56:15.442Z,60.64
2018-09-17T21:58:45.005Z,61.25
2018-09-17T22:01:18.703Z,61.16
2018-09-17T22:03:49.452Z,61.18
2018-09-17T22:06:19.196Z,61.19
2018-09-17T22:08:48.697Z,60.81
2018-09-17T22:11:18.271Z,61.55
2018-09-17T22:13:47.877Z,61.79
2018-09-17T22:16:17.642Z,61.34
2018-09-17T22:18:47.739Z,61.86
2018-09-17T22:21:17.313Z,61.94
2018-09-17T22:23:47.175Z,61.89
2018-09-17T22:26:16.744Z,62.05
2018-09-17T22:28:46.332Z,62.28
2018-09-17T22:31:15.862Z,62.68
2018-09-17T22:33:45.426Z,62.09
2018-09-17T22:36:14.974Z,62.12
2018-09-17T22:38:44.528Z,61.73
2018-09-17T22:41:14.096Z,61.80
2018-09-17T22:43:43.653Z,62.47
2018-09-17T22:46:13.187Z,62.48
2018-09-17T22:48:42.715Z,63.01
2018-09-17T22:51:12.294Z,63.36
2018-09-17T22:53:41.862Z,63.18
2018-09-17T22:56:11.426Z,62.74
2018-09-17T22:58:40.963Z,63.08
2018-09-17T23:01:10.502Z,63.11
2018-09-17T23:03:40.026Z,62.80
2018-09-17T23:06:09.575Z,63.30
2018-09-17T23:08:39.111Z,63.65
2018-09-17T23:11:08.854Z,64.05
2018-09-17T23:13:38.436Z,64.36
2018-09-17T23:16:08.000Z,64.04
2018-09-17T23:18:37.581Z,64.24
2018-09-17T23:21:07.459Z,64.54
2018-09-17T23:23:36.985Z,64.16
2018-09-17T23:26:06.714Z,64.44
2018-09-17T23:28:36.257Z,64.50
2018-09-17T23:31:06.371Z,64.91
2018-09-17T23:33:35.896Z,64.75
2018-09-17T23:36:05.716Z,65.18
2018-09-17T23:38:35.264Z,65.22
2018-09-17T23:41:05.264Z,65.51
2018-09-17T23:43:35.059Z,65.62
2018-09-17T23:46:04.591Z,65.27
2018-09-17T23:48:34.186Z,65.39
2018-09-17T23:51:03.752Z,66.00
2018-09-17T23:53:33.316Z,65.86
2018-09-17T23:56:02.858Z,66.05
2018-09-17T23:58:32.383Z,66.28
